Time;durP1;ratioP1;P1;durP2;ratioP2;P2;SDS_P1;SDS_P2;PMS_P1;PMS_P2;Temp;Humidity;BMP_temperature;BMP_pressure;BME280_temperature;BME280_humidity;BME280_pressure;Samples;Min_cycle;Max_cycle;Signal;HPM_P1;HPM_P2
2023/01/03 00:00:11;;;;;;;19.08;10.65;;;8.60;99.90;;;;;;5016020;28;20014;-73
2023/01/03 00:02:37;;;;;;;19.80;11.63;;;8.60;99.90;;;;;;5011492;28;20366;-73
2023/01/03 00:05:03;;;;;;;23.60;11.13;;;8.60;99.90;;;;;;4993189;28;20040;-73
2023/01/03 00:07:34;;;;;;;26.65;11.43;;;8.60;99.90;;;;;;4993199;28;20144;-73
2023/01/03 00:10:09;;;;;;;24.10;12.32;;;8.60;99.90;;;;;;4995834;28;20034;-73
2023/01/03 00:12:36;;;;;;;21.65;11.50;;;8.60;99.90;;;;;;5011283;28;20021;-73
2023/01/03 00:15:02;;;;;;;23.70;12.07;;;8.60;99.90;;;;;;5017180;28;20534;-73
2023/01/03 00:17:27;;;;;;;16.85;10.07;;;8.60;99.90;;;;;;5007706;28;20022;-73
2023/01/03 00:19:53;;;;;;;17.77;11.15;;;8.60;99.90;;;;;;5011162;28;20033;-72
2023/01/03 00:22:19;;;;;;;22.17;11.18;;;8.60;99.90;;;;;;5010562;28;20029;-73
2023/01/03 00:24:47;;;;;;;22.60;11.00;;;8.50;99.90;;;;;;5008943;28;20121;-73
2023/01/03 00:27:14;;;;;;;20.90;10.15;;;8.50;99.90;;;;;;5013058;28;20083;-72
2023/01/03 00:29:40;;;;;;;19.58;11.57;;;8.50;99.90;;;;;;5006813;28;20026;-73
2023/01/03 00:32:06;;;;;;;20.55;11.30;;;8.50;99.90;;;;;;4990600;28;20443;-73
2023/01/03 00:34:33;;;;;;;20.88;11.35;;;8.40;99.90;;;;;;5008876;28;20078;-72
2023/01/03 00:36:59;;;;;;;16.25;10.82;;;8.40;99.90;;;;;;5012512;28;20034;-72
2023/01/03 00:39:25;;;;;;;17.52;11.40;;;8.40;99.90;;;;;;5013551;28;20036;-72
2023/01/03 00:41:51;;;;;;;22.45;11.48;;;8.40;99.90;;;;;;5014442;28;20457;-72
2023/01/03 00:44:17;;;;;;;19.50;12.27;;;8.30;99.90;;;;;;4993510;28;20065;-73
2023/01/03 00:46:43;;;;;;;16.80;10.80;;;8.30;99.90;;;;;;5012371;28;20163;-73
2023/01/03 00:49:09;;;;;;;20.23;11.18;;;8.30;99.90;;;;;;4990768;28;20129;-72
2023/01/03 00:51:38;;;;;;;18.63;11.73;;;8.30;99.90;;;;;;5010043;28;20018;-73
2023/01/03 00:54:06;;;;;;;20.25;11.77;;;8.20;99.90;;;;;;4994532;28;20021;-73
2023/01/03 00:56:36;;;;;;;20.00;11.95;;;8.20;99.90;;;;;;5008734;28;20026;-72
2023/01/03 00:59:02;;;;;;;20.40;11.35;;;8.30;99.90;;;;;;5002040;28;20192;-73
2023/01/03 01:01:49;;;;;;;19.05;12.20;;;8.20;99.90;;;;;;4999650;28;20025;-73
2023/01/03 01:04:22;;;;;;;26.83;13.13;;;8.20;99.90;;;;;;5005979;28;20034;-73
2023/01/03 01:06:54;;;;;;;24.17;12.48;;;8.20;99.90;;;;;;5003657;28;20041;-72
2023/01/03 01:09:23;;;;;;;20.50;11.55;;;8.10;99.90;;;;;;5006838;28;20025;-72
2023/01/03 01:11:50;;;;;;;22.08;11.35;;;8.10;99.90;;;;;;4998183;28;20714;-73
2023/01/03 01:14:20;;;;;;;14.23;10.32;;;8.00;99.90;;;;;;5007082;28;20033;-73
2023/01/03 01:16:52;;;;;;;18.65;10.40;;;8.00;99.90;;;;;;5006182;28;20029;-72
2023/01/03 01:19:21;;;;;;;18.50;11.05;;;8.10;99.90;;;;;;5012240;28;20113;-72
2023/01/03 01:21:46;;;;;;;20.67;11.88;;;8.10;99.90;;;;;;5011176;28;20516;-73
2023/01/03 01:24:12;;;;;;;21.65;10.90;;;8.00;99.90;;;;;;5012715;28;20034;-73
2023/01/03 01:26:38;;;;;;;23.98;11.90;;;8.00;99.90;;;;;;5006957;28;20027;-72
2023/01/03 01:29:04;;;;;;;29.17;12.25;;;8.00;99.90;;;;;;5007150;28;20033;-73
2023/01/03 01:31:31;;;;;;;16.27;10.35;;;7.90;99.90;;;;;;5008211;28;20025;-73
2023/01/03 01:33:57;;;;;;;20.58;10.93;;;7.90;99.90;;;;;;4970298;28;20068;-73
2023/01/03 01:36:25;;;;;;;31.25;11.60;;;7.80;99.90;;;;;;4993448;28;20026;-73
2023/01/03 01:38:57;;;;;;;19.90;10.68;;;7.80;99.90;;;;;;4991386;28;20057;-73
2023/01/03 01:44:38;;;;;;;20.15;11.93;;;7.80;99.90;;;;;;5008978;28;20484;-72
2023/01/03 01:47:12;;;;;;;19.17;11.98;;;7.80;99.90;;;;;;4996635;28;20045;-72
2023/01/03 01:49:37;;;;;;;23.23;12.60;;;7.70;99.90;;;;;;5015636;28;20373;-73
2023/01/03 01:52:03;;;;;;;22.50;11.75;;;7.70;99.90;;;;;;5009096;28;20038;-72
2023/01/03 01:54:29;;;;;;;18.63;12.18;;;7.60;99.90;;;;;;5014964;28;20022;-72
2023/01/03 01:56:55;;;;;;;21.80;10.90;;;7.70;99.90;;;;;;5010404;28;20090;-72
2023/01/03 01:59:21;;;;;;;21.40;12.23;;;7.60;99.90;;;;;;5016473;28;20458;-72
2023/01/03 02:01:48;;;;;;;22.05;11.10;;;7.70;99.90;;;;;;4989840;28;20113;-73
2023/01/03 02:04:21;;;;;;;22.25;11.52;;;7.60;99.90;;;;;;5015101;28;20470;-73
2023/01/03 02:06:48;;;;;;;23.98;11.95;;;7.60;99.90;;;;;;5012386;28;20026;-72
2023/01/03 02:09:13;;;;;;;25.30;12.30;;;7.50;99.90;;;;;;5013110;28;20369;-73
2023/01/03 02:14:49;;;;;;;23.80;11.48;;;7.50;99.90;;;;;;5007688;28;20177;-73
2023/01/03 02:17:35;;;;;;;24.58;11.63;;;7.40;99.90;;;;;;4996185;28;20030;-72
2023/01/03 02:20:10;;;;;;;19.83;11.07;;;7.50;99.90;;;;;;4995434;28;20544;-73
2023/01/03 02:23:12;;;;;;;19.15;10.75;;;7.50;99.90;;;;;;5018422;28;20037;-72
2023/01/03 02:25:50;;;;;;;17.92;12.07;;;7.50;99.90;;;;;;4990663;28;22443;-72
2023/01/03 02:28:45;;;;;;;21.73;11.80;;;7.40;99.90;;;;;;5015837;28;20515;-72
2023/01/03 02:31:28;;;;;;;14.93;9.88;;;7.50;99.90;;;;;;5010146;28;20661;-72
2023/01/03 02:34:03;;;;;;;23.90;11.85;;;7.50;99.90;;;;;;5010610;28;20030;-72
2023/01/03 02:36:34;;;;;;;19.60;11.07;;;7.40;99.90;;;;;;5013223;28;20097;-73
2023/01/03 02:39:25;;;;;;;17.98;10.95;;;7.40;99.90;;;;;;5011234;28;20478;-72
2023/01/03 02:42:56;;;;;;;23.25;11.35;;;7.40;99.90;;;;;;4965004;28;20026;-72
2023/01/03 02:44:56;;;;;;;22.67;11.25;;;7.30;99.90;;;;;;5014566;28;20393;-73
2023/01/03 02:47:26;;;;;;;18.42;10.10;;;7.30;99.90;;;;;;5015027;28;20484;-72
2023/01/03 02:49:53;;;;;;;18.13;10.48;;;7.30;99.90;;;;;;5006160;28;20034;-72
2023/01/03 02:52:24;;;;;;;17.65;10.40;;;7.30;99.90;;;;;;5012660;28;20047;-72
2023/01/03 02:55:34;;;;;;;15.63;10.73;;;7.30;99.90;;;;;;5016231;28;20484;-72
2023/01/03 02:58:08;;;;;;;21.83;11.40;;;7.20;99.90;;;;;;4948414;28;20110;-72
2023/01/03 03:00:40;;;;;;;23.20;10.05;;;7.20;99.90;;;;;;5005207;28;20042;-72
2023/01/03 03:03:11;;;;;;;20.10;10.75;;;7.20;99.90;;;;;;5008976;28;20176;-72
2023/01/03 03:05:53;;;;;;;21.27;10.90;;;7.20;99.90;;;;;;5017646;28;20458;-72
2023/01/03 03:08:19;;;;;;;19.70;10.23;;;7.20;99.90;;;;;;5006942;28;20022;-72
2023/01/03 03:13:45;;;;;;;23.02;11.13;;;7.20;99.90;;;;;;5018632;28;20501;-73
2023/01/03 03:25:27;;;;;;;20.20;10.07;;;7.10;99.90;;;;;;5007092;28;20104;-72
2023/01/03 03:30:45;;;;;;;21.02;10.27;;;7.00;99.90;;;;;;5013880;28;20100;-72
2023/01/03 03:33:14;;;;;;;17.58;10.77;;;7.10;99.90;;;;;;4995471;28;20018;-72
2023/01/03 03:35:59;;;;;;;23.42;10.43;;;7.10;99.90;;;;;;4992960;28;20105;-72
2023/01/03 03:38:34;;;;;;;19.98;10.90;;;7.10;99.90;;;;;;5017318;28;20474;-72
2023/01/03 03:47:16;;;;;;;16.17;9.27;;;7.00;99.90;;;;;;4929098;29;19915;-72
2023/01/03 03:49:44;;;;;;;23.15;11.98;;;6.90;99.90;;;;;;4993234;28;20034;-72
2023/01/03 03:52:17;;;;;;;19.20;11.27;;;6.90;99.90;;;;;;5014579;28;20064;-72
2023/01/03 03:54:53;;;;;;;27.05;11.13;;;6.90;99.90;;;;;;5011051;28;20063;-72
2023/01/03 03:57:28;;;;;;;20.05;9.70;;;6.90;99.90;;;;;;5009872;28;20075;-72
2023/01/03 03:59:59;;;;;;;15.18;8.57;;;6.90;99.90;;;;;;4995575;28;20064;-73
2023/01/03 04:02:29;;;;;;;14.90;8.85;;;6.90;99.90;;;;;;5014669;28;20054;-72
2023/01/03 04:04:59;;;;;;;14.45;8.07;;;6.90;99.90;;;;;;5006932;28;20539;-72
2023/01/03 04:07:25;;;;;;;14.90;9.05;;;7.00;99.90;;;;;;5014912;28;20032;-72
2023/01/03 04:09:51;;;;;;;19.75;9.13;;;7.00;99.90;;;;;;5015071;28;20472;-72
2023/01/03 04:12:16;;;;;;;20.38;10.00;;;7.00;99.90;;;;;;5016492;28;20449;-72
2023/01/03 04:14:42;;;;;;;18.75;11.32;;;6.90;99.90;;;;;;5008448;28;20645;-72
2023/01/03 04:17:07;;;;;;;20.45;11.05;;;6.90;99.90;;;;;;5009866;28;20037;-72
2023/01/03 04:19:33;;;;;;;21.20;11.10;;;6.90;99.90;;;;;;5012714;28;20677;-72
2023/01/03 04:21:58;;;;;;;21.27;11.75;;;6.90;99.90;;;;;;5011003;28;20469;-72
2023/01/03 04:24:24;;;;;;;22.73;12.68;;;6.90;99.90;;;;;;5016221;28;20033;-72
2023/01/03 04:26:50;;;;;;;25.25;12.57;;;6.90;99.90;;;;;;4993452;28;20079;-72
2023/01/03 04:29:16;;;;;;;26.23;12.55;;;6.90;99.90;;;;;;5005752;28;20366;-72
2023/01/03 04:31:41;;;;;;;23.33;12.23;;;6.80;99.90;;;;;;5014031;28;20025;-72
2023/01/03 04:34:07;;;;;;;21.70;12.00;;;6.90;99.90;;;;;;5007365;28;20033;-72
2023/01/03 04:36:32;;;;;;;28.50;13.00;;;6.80;99.90;;;;;;4996382;28;20036;-72
2023/01/03 04:38:58;;;;;;;21.30;11.57;;;6.90;99.90;;;;;;5014626;28;20029;-72
2023/01/03 04:41:24;;;;;;;18.15;11.05;;;6.90;99.90;;;;;;5010253;28;20563;-72
2023/01/03 04:44:01;;;;;;;16.92;9.05;;;6.90;99.90;;;;;;4994909;28;20413;-72
2023/01/03 04:46:38;;;;;;;19.45;9.90;;;6.90;99.90;;;;;;5012574;28;20022;-72
2023/01/03 04:49:07;;;;;;;14.73;9.05;;;6.90;99.90;;;;;;5004743;28;20597;-72
2023/01/03 04:51:33;;;;;;;18.33;10.38;;;6.90;99.90;;;;;;5014358;28;20104;-72
2023/01/03 04:53:59;;;;;;;19.75;9.77;;;6.90;99.90;;;;;;5016063;28;20026;-73
2023/01/03 04:56:26;;;;;;;21.38;11.18;;;6.90;99.90;;;;;;5008591;28;20454;-72
2023/01/03 04:58:52;;;;;;;15.95;9.70;;;6.90;99.90;;;;;;4993532;28;20071;-72
2023/01/03 05:01:18;;;;;;;17.27;9.23;;;6.90;99.90;;;;;;4995113;28;20018;-72
2023/01/03 05:03:43;;;;;;;22.13;10.45;;;6.90;99.90;;;;;;4999524;28;20034;-72
2023/01/03 05:06:10;;;;;;;22.65;10.00;;;6.90;99.90;;;;;;5014666;28;20025;-72
2023/01/03 05:08:37;;;;;;;17.80;10.00;;;6.90;99.90;;;;;;5005775;28;20606;-72
2023/01/03 05:11:04;;;;;;;21.27;10.68;;;7.00;99.90;;;;;;5012138;28;20030;-72
2023/01/03 05:13:29;;;;;;;20.17;9.95;;;7.00;99.90;;;;;;5003453;28;20149;-72
2023/01/03 05:15:55;;;;;;;20.42;10.48;;;7.10;99.90;;;;;;5011579;28;20120;-72
2023/01/03 05:18:21;;;;;;;20.92;11.95;;;7.00;99.90;;;;;;5011349;28;20029;-72
2023/01/03 05:26:20;;;;;;;22.02;11.45;;;7.10;99.90;;;;;;5013854;28;20482;-72
2023/01/03 05:28:49;;;;;;;23.08;11.95;;;7.10;99.90;;;;;;5008173;28;20037;-72
2023/01/03 05:31:15;;;;;;;21.77;11.48;;;7.10;99.90;;;;;;5009362;28;20026;-72
2023/01/03 05:33:41;;;;;;;19.15;11.32;;;7.10;99.90;;;;;;5006924;28;20540;-73
2023/01/03 05:36:07;;;;;;;20.65;9.88;;;7.00;99.90;;;;;;4989825;28;20065;-72
2023/01/03 05:38:33;;;;;;;17.45;9.63;;;7.00;99.90;;;;;;5011755;28;20021;-72
2023/01/03 05:40:59;;;;;;;28.90;12.07;;;7.00;99.90;;;;;;4989030;28;20030;-73
2023/01/03 05:43:24;;;;;;;35.58;12.35;;;7.00;99.90;;;;;;5010642;28;20041;-72
2023/01/03 05:45:51;;;;;;;17.50;8.70;;;7.10;99.90;;;;;;4993914;28;20371;-72
2023/01/03 05:48:18;;;;;;;20.52;10.07;;;7.10;99.90;;;;;;5009224;28;20017;-72
2023/01/03 05:50:44;;;;;;;15.88;9.48;;;7.00;99.90;;;;;;5009560;28;20022;-73
2023/01/03 05:53:10;;;;;;;18.25;9.73;;;7.00;99.90;;;;;;4992299;28;20022;-73
2023/01/03 05:55:36;;;;;;;21.75;11.07;;;7.00;99.90;;;;;;5010021;28;20368;-72
2023/01/03 05:58:04;;;;;;;19.75;10.60;;;7.10;99.90;;;;;;4988315;28;20034;-73
2023/01/03 06:00:29;;;;;;;19.98;10.85;;;7.10;99.90;;;;;;5014735;28;20018;-73
2023/01/03 06:02:55;;;;;;;23.13;12.15;;;7.10;99.90;;;;;;4990009;28;20068;-72
2023/01/03 06:05:21;;;;;;;22.65;10.95;;;7.10;99.90;;;;;;5011264;28;20393;-73
2023/01/03 06:07:46;;;;;;;22.83;11.48;;;7.10;99.90;;;;;;5006770;28;20593;-72
2023/01/03 06:10:12;;;;;;;19.38;10.88;;;7.20;99.90;;;;;;5014616;28;20091;-73
2023/01/03 06:12:37;;;;;;;23.48;10.48;;;7.10;99.90;;;;;;5005848;28;20381;-73
2023/01/03 06:15:04;;;;;;;16.92;10.15;;;7.10;99.90;;;;;;5011502;28;20097;-73
2023/01/03 06:20:14;;;;;;;25.77;12.68;;;7.10;99.90;;;;;;5012549;28;20107;-73
2023/01/03 06:22:39;;;;;;;24.30;11.95;;;7.20;99.90;;;;;;5009133;28;20187;-72
2023/01/03 06:25:05;;;;;;;25.88;12.77;;;7.20;99.90;;;;;;5012149;28;20037;-73
2023/01/03 06:27:31;;;;;;;22.25;11.63;;;7.20;99.90;;;;;;5013606;28;20026;-73
2023/01/03 06:29:56;;;;;;;25.65;11.85;;;7.30;99.90;;;;;;5006168;28;20381;-73
2023/01/03 06:32:22;;;;;;;24.42;12.57;;;7.30;99.90;;;;;;4999918;28;20026;-73
2023/01/03 06:34:48;;;;;;;20.33;12.85;;;7.40;99.90;;;;;;5015448;28;20032;-72
2023/01/03 06:37:13;;;;;;;22.52;13.55;;;7.40;99.90;;;;;;5017956;28;20109;-74
2023/01/03 06:39:39;;;;;;;25.80;13.48;;;7.30;99.90;;;;;;5012128;28;20116;-73
2023/01/03 06:53:13;;;;;;;27.02;14.02;;;7.50;99.90;;;;;;5018755;28;20165;-70
2023/01/03 06:55:41;;;;;;;26.98;15.13;;;7.50;99.90;;;;;;5013730;28;20026;-70
2023/01/03 06:58:07;;;;;;;22.65;14.18;;;7.60;99.90;;;;;;5016818;28;20104;-70
2023/01/03 07:00:35;;;;;;;26.00;13.70;;;7.60;99.90;;;;;;5009934;28;20112;-70
2023/01/03 07:03:01;;;;;;;23.73;14.25;;;7.60;99.90;;;;;;5016344;28;20029;-70
2023/01/03 07:05:27;;;;;;;21.70;12.65;;;7.60;99.90;;;;;;5006666;28;20034;-70
2023/01/03 07:07:52;;;;;;;30.00;14.85;;;7.70;99.90;;;;;;5011874;28;20378;-70
2023/01/03 07:10:18;;;;;;;24.48;14.40;;;7.70;99.90;;;;;;5016625;28;20030;-70
2023/01/03 07:15:27;;;;;;;33.95;15.60;;;7.60;99.90;;;;;;5012096;28;20084;-70
2023/01/03 07:17:54;;;;;;;27.23;14.23;;;7.60;99.90;;;;;;5007691;28;20026;-70
2023/01/03 07:20:21;;;;;;;30.48;14.43;;;7.70;99.90;;;;;;5012097;28;20018;-70
2023/01/03 07:22:46;;;;;;;29.05;15.40;;;7.80;99.90;;;;;;5010789;28;20882;-70
2023/01/03 07:25:12;;;;;;;28.77;15.32;;;7.70;99.90;;;;;;5013459;28;20029;-69
2023/01/03 07:27:37;;;;;;;31.63;16.88;;;7.70;99.90;;;;;;5016770;28;20033;-69
2023/01/03 07:30:03;;;;;;;32.55;15.50;;;7.60;99.90;;;;;;5015542;28;20025;-69
2023/01/03 07:32:29;;;;;;;33.78;16.77;;;7.60;99.90;;;;;;5014125;28;20481;-69
2023/01/03 07:34:54;;;;;;;35.53;16.60;;;7.60;99.90;;;;;;5015094;28;20108;-69
2023/01/03 07:37:20;;;;;;;31.25;14.80;;;7.50;99.90;;;;;;5017693;28;20022;-69
2023/01/03 07:39:45;;;;;;;36.88;16.30;;;7.60;99.90;;;;;;4998385;28;20057;-69
2023/01/03 07:44:55;;;;;;;30.83;16.73;;;7.60;99.90;;;;;;5013996;28;20128;-68
2023/01/03 07:47:21;;;;;;;32.65;16.33;;;7.60;99.90;;;;;;5016048;28;20104;-68
2023/01/03 07:49:46;;;;;;;33.38;16.58;;;7.70;99.90;;;;;;4996086;28;20465;-68
2023/01/03 07:52:12;;;;;;;30.33;15.00;;;7.70;99.90;;;;;;5012330;28;20047;-69
2023/01/03 07:54:37;;;;;;;36.20;17.17;;;7.60;99.90;;;;;;5007234;28;21246;-69
2023/01/03 07:57:03;;;;;;;30.75;16.38;;;7.60;99.90;;;;;;5013166;28;20036;-69
2023/01/03 07:59:29;;;;;;;34.90;17.08;;;7.60;99.90;;;;;;5008603;28;20445;-72
2023/01/03 08:01:54;;;;;;;37.83;17.33;;;7.60;99.90;;;;;;5007564;28;20018;-69
2023/01/03 08:04:20;;;;;;;39.50;19.42;;;7.70;99.90;;;;;;5011919;28;20062;-69
2023/01/03 08:06:46;;;;;;;32.80;18.05;;;7.70;99.90;;;;;;5013318;28;20033;-69
2023/01/03 08:14:39;;;;;;;32.30;15.48;;;7.70;99.90;;;;;;5006188;28;20091;-70
2023/01/03 08:17:05;;;;;;;29.05;15.18;;;7.70;99.90;;;;;;4990933;28;20156;-70
2023/01/03 08:19:31;;;;;;;34.35;17.33;;;7.70;99.90;;;;;;5014720;28;20022;-73
2023/01/03 08:21:56;;;;;;;38.15;19.25;;;7.80;99.90;;;;;;5010777;28;20128;-71
2023/01/03 08:24:22;;;;;;;39.22;17.70;;;7.80;99.90;;;;;;5011484;28;20038;-71
2023/01/03 08:26:47;;;;;;;41.35;18.08;;;7.90;99.90;;;;;;5008792;28;20057;-71
2023/01/03 08:29:14;;;;;;;40.30;18.15;;;7.80;99.90;;;;;;5014790;28;20583;-72
2023/01/03 08:31:48;;;;;;;34.38;16.45;;;7.90;99.90;;;;;;5014496;28;20026;-71
2023/01/03 08:34:15;;;;;;;37.75;17.10;;;8.00;99.90;;;;;;5013168;28;20083;-72
2023/01/03 08:36:48;;;;;;;36.75;17.50;;;8.00;99.90;;;;;;4998200;28;20045;-72
2023/01/03 08:39:21;;;;;;;40.80;19.33;;;8.00;99.90;;;;;;5007446;28;20112;-71
2023/01/03 08:41:52;;;;;;;36.15;18.45;;;7.90;99.90;;;;;;5008595;28;20373;-72
2023/01/03 08:44:18;;;;;;;38.80;17.38;;;8.00;99.90;;;;;;5005881;28;20586;-71
2023/01/03 08:46:50;;;;;;;34.45;17.08;;;8.10;99.90;;;;;;5012654;28;20040;-71
2023/01/03 08:49:16;;;;;;;36.38;17.17;;;8.10;99.90;;;;;;4994042;28;20022;-72
2023/01/03 08:51:41;;;;;;;35.35;15.95;;;8.20;99.90;;;;;;5012233;28;20026;-72
2023/01/03 08:54:07;;;;;;;34.17;15.45;;;8.10;99.90;;;;;;5007400;28;20025;-72
2023/01/03 08:56:35;;;;;;;32.88;16.35;;;8.20;99.90;;;;;;4997088;28;20068;-72
2023/01/03 08:59:01;;;;;;;29.98;15.88;;;8.20;99.90;;;;;;5014186;28;20036;-72
2023/01/03 09:01:27;;;;;;;31.95;15.35;;;8.20;99.90;;;;;;5019799;28;20045;-72
2023/01/03 09:03:53;;;;;;;30.13;13.40;;;8.30;99.90;;;;;;5011824;28;20041;-72
2023/01/03 09:06:18;;;;;;;30.92;13.98;;;8.30;99.90;;;;;;5013805;28;20080;-72
2023/01/03 09:08:44;;;;;;;31.42;15.23;;;8.40;99.90;;;;;;5015227;28;20041;-72
2023/01/03 09:11:10;;;;;;;32.58;14.77;;;8.40;99.90;;;;;;5013093;28;20083;-72
2023/01/03 09:13:36;;;;;;;28.55;13.68;;;8.40;99.90;;;;;;4992585;28;20477;-72
2023/01/03 09:16:06;;;;;;;30.23;12.55;;;8.40;99.90;;;;;;5010478;28;20027;-72
2023/01/03 09:18:33;;;;;;;28.67;13.63;;;8.50;99.90;;;;;;5008368;28;20037;-72
2023/01/03 09:20:58;;;;;;;26.48;13.52;;;8.50;99.90;;;;;;4991420;28;20026;-72
2023/01/03 09:23:25;;;;;;;29.00;13.93;;;8.50;99.90;;;;;;5014199;28;20118;-72
2023/01/03 09:25:50;;;;;;;25.55;13.30;;;8.60;99.90;;;;;;5014707;28;20409;-73
2023/01/03 09:28:16;;;;;;;24.52;13.15;;;8.60;99.90;;;;;;5010501;28;20034;-73
2023/01/03 09:30:42;;;;;;;24.10;13.20;;;8.70;99.90;;;;;;5010752;28;20041;-72
2023/01/03 09:33:09;;;;;;;29.35;14.23;;;8.70;99.90;;;;;;5007590;28;20022;-72
2023/01/03 09:35:38;;;;;;;30.40;15.25;;;8.70;99.90;;;;;;5011059;28;20030;-72
2023/01/03 09:38:04;;;;;;;31.65;14.60;;;8.70;99.90;;;;;;5007852;28;20101;-72
2023/01/03 09:40:31;;;;;;;24.67;11.93;;;8.80;99.90;;;;;;5005770;28;20036;-73
2023/01/03 09:43:13;;;;;;;27.50;14.63;;;8.80;99.90;;;;;;5009851;28;20030;-73
2023/01/03 09:45:43;;;;;;;29.20;13.00;;;8.80;99.90;;;;;;5012425;28;20034;-72
2023/01/03 09:48:17;;;;;;;24.92;12.43;;;8.90;99.90;;;;;;5011470;28;20435;-72
2023/01/03 09:50:44;;;;;;;21.08;10.43;;;9.00;99.90;;;;;;5012861;28;20029;-72
2023/01/03 10:05:13;;;;;;;18.63;8.82;;;9.10;99.90;;;;;;5010124;28;20205;-72
2023/01/03 10:07:48;;;;;;;19.65;9.15;;;9.20;99.90;;;;;;5005328;28;20044;-73
2023/01/03 10:10:27;;;;;;;21.90;10.23;;;9.20;99.90;;;;;;4994176;28;20036;-72
2023/01/03 10:13:27;;;;;;;20.55;9.85;;;9.20;99.90;;;;;;5012574;28;20057;-72
2023/01/03 10:16:06;;;;;;;19.35;8.95;;;9.30;99.90;;;;;;5013644;28;20030;-73
2023/01/03 10:18:48;;;;;;;16.00;8.45;;;9.30;99.90;;;;;;5010861;28;20050;-73
2023/01/03 10:21:34;;;;;;;15.88;8.80;;;9.30;99.90;;;;;;4994353;28;20029;-73
2023/01/03 10:24:00;;;;;;;20.88;9.35;;;9.40;99.90;;;;;;4989631;28;20048;-73
2023/01/03 10:26:29;;;;;;;14.73;8.43;;;9.40;99.90;;;;;;5015310;28;20026;-73
2023/01/03 10:28:54;;;;;;;17.00;9.25;;;9.40;99.90;;;;;;4995098;28;20034;-73
2023/01/03 10:31:52;;;;;;;16.88;7.03;;;9.50;99.90;;;;;;4999396;28;20079;-73
2023/01/03 10:34:17;;;;;;;12.18;8.10;;;9.50;99.90;;;;;;5008545;28;20029;-73
2023/01/03 10:36:43;;;;;;;20.02;8.10;;;9.60;99.90;;;;;;5012529;28;20095;-73
2023/01/03 10:39:09;;;;;;;14.50;7.60;;;9.60;99.90;;;;;;4990249;28;20146;-73
2023/01/03 10:41:43;;;;;;;15.98;8.13;;;9.60;99.90;;;;;;5009385;28;20087;-73
2023/01/03 10:44:24;;;;;;;17.70;8.50;;;9.60;99.90;;;;;;5011101;28;20108;-72
2023/01/03 10:46:53;;;;;;;18.73;7.55;;;9.80;99.90;;;;;;5014389;28;20030;-75
2023/01/03 10:49:25;;;;;;;15.43;7.78;;;9.60;99.90;;;;;;4992343;28;20049;-74
2023/01/03 10:52:16;;;;;;;17.27;7.47;;;9.80;99.90;;;;;;5015275;28;20028;-74
2023/01/03 10:54:50;;;;;;;12.32;6.72;;;9.80;99.90;;;;;;4989385;28;20026;-75
2023/01/03 10:57:50;;;;;;;16.98;7.47;;;9.80;99.90;;;;;;5012693;28;20105;-74
2023/01/03 11:00:37;;;;;;;14.10;7.20;;;9.90;99.90;;;;;;5005492;28;20411;-74
2023/01/03 11:03:24;;;;;;;15.85;7.63;;;9.90;99.90;;;;;;5004803;28;20026;-74
2023/01/03 11:05:56;;;;;;;17.00;7.85;;;10.00;99.90;;;;;;5009436;28;20052;-73
2023/01/03 11:08:34;;;;;;;16.13;8.43;;;10.10;99.90;;;;;;4986296;28;20032;-73
2023/01/03 11:11:00;;;;;;;12.35;7.03;;;10.10;99.90;;;;;;4988285;28;20289;-75
2023/01/03 11:13:40;;;;;;;17.58;7.65;;;10.10;99.90;;;;;;5008474;28;20022;-74
2023/01/03 11:16:17;;;;;;;13.00;7.05;;;10.10;99.90;;;;;;5004774;28;20026;-76
2023/01/03 11:18:57;;;;;;;15.80;7.65;;;10.00;99.90;;;;;;5009157;28;20029;-75
2023/01/03 11:21:34;;;;;;;18.45;7.53;;;10.00;99.90;;;;;;5009637;28;20033;-75
2023/01/03 11:24:14;;;;;;;20.92;7.97;;;10.10;99.90;;;;;;5007258;28;20038;-75
2023/01/03 11:26:56;;;;;;;16.65;7.35;;;10.10;99.90;;;;;;5007273;28;20029;-74
2023/01/03 11:29:25;;;;;;;9.95;6.20;;;10.10;99.90;;;;;;5003859;28;20037;-74
2023/01/03 11:31:59;;;;;;;14.68;6.22;;;10.20;99.90;;;;;;5008657;28;20509;-74
2023/01/03 11:34:34;;;;;;;16.90;6.93;;;10.20;99.90;;;;;;5008191;28;20018;-74
2023/01/03 11:37:12;;;;;;;15.60;6.75;;;10.10;99.90;;;;;;4991675;28;20025;-74
2023/01/03 11:39:49;;;;;;;14.60;5.95;;;10.10;99.90;;;;;;5009175;28;20033;-74
2023/01/03 11:42:36;;;;;;;14.98;6.85;;;10.10;99.90;;;;;;4983003;28;20115;-74
2023/01/03 11:45:17;;;;;;;13.90;6.60;;;10.20;99.90;;;;;;5010713;28;20412;-74
2023/01/03 11:47:54;;;;;;;15.85;6.00;;;10.20;99.90;;;;;;5008818;28;20091;-74
2023/01/03 11:50:51;;;;;;;17.00;6.50;;;10.20;99.90;;;;;;5004452;28;20045;-74
2023/01/03 11:53:25;;;;;;;17.02;6.68;;;10.30;99.90;;;;;;5005267;28;20091;-74
2023/01/03 11:56:03;;;;;;;13.73;5.95;;;10.20;99.90;;;;;;5003793;28;20037;-76
2023/01/03 11:58:34;;;;;;;19.02;6.95;;;10.20;99.90;;;;;;5008811;28;20034;-78
2023/01/03 12:01:31;;;;;;;9.25;5.47;;;10.20;99.90;;;;;;5003319;28;20068;-75
2023/01/03 12:04:24;;;;;;;8.88;4.97;;;10.20;99.90;;;;;;5005151;28;20041;-77
2023/01/03 12:07:05;;;;;;;10.30;5.78;;;10.20;99.90;;;;;;5009512;28;20033;-79
2023/01/03 12:09:52;;;;;;;7.80;4.40;;;10.20;99.90;;;;;;5007319;28;20795;-75
2023/01/03 12:12:32;;;;;;;9.52;4.15;;;10.20;99.90;;;;;;5006027;28;20073;-76
2023/01/03 12:15:22;;;;;;;10.48;4.40;;;10.20;99.90;;;;;;5005338;28;20072;-76
2023/01/03 12:17:58;;;;;;;9.82;4.45;;;10.20;99.90;;;;;;5008833;28;20026;-77
2023/01/03 12:20:35;;;;;;;8.82;4.25;;;10.10;99.90;;;;;;4987394;28;20030;-77
2023/01/03 12:23:14;;;;;;;12.05;4.65;;;10.20;99.90;;;;;;5006717;28;20041;-76
2023/01/03 12:25:46;;;;;;;12.43;5.05;;;10.20;99.90;;;;;;5008655;28;20559;-76
2023/01/03 12:28:22;;;;;;;12.55;5.28;;;10.20;99.90;;;;;;5008529;28;20357;-76
2023/01/03 12:31:16;;;;;;;14.85;5.43;;;10.30;99.90;;;;;;5007557;28;20029;-77
2023/01/03 12:33:56;;;;;;;10.27;5.90;;;10.40;99.90;;;;;;5008355;28;20084;-76
2023/01/03 12:36:41;;;;;;;10.48;5.97;;;10.40;99.90;;;;;;5009204;28;20021;-76
2023/01/03 12:39:39;;;;;;;10.77;4.80;;;10.40;99.90;;;;;;5004657;28;20212;-76
2023/01/03 12:42:20;;;;;;;9.40;4.78;;;10.40;99.90;;;;;;5009134;28;20084;-74
2023/01/03 12:44:50;;;;;;;9.05;4.78;;;10.50;99.90;;;;;;5009970;28;20048;-73
2023/01/03 12:47:25;;;;;;;11.02;4.63;;;10.40;99.90;;;;;;5006754;28;20482;-73
2023/01/03 12:50:12;;;;;;;14.13;4.82;;;10.40;99.90;;;;;;5003842;28;20030;-74
2023/01/03 12:52:39;;;;;;;11.52;4.68;;;10.40;99.90;;;;;;5006820;28;20042;-74
2023/01/03 12:55:19;;;;;;;9.60;4.50;;;10.30;99.90;;;;;;4986569;28;20671;-73
2023/01/03 12:57:57;;;;;;;6.47;4.55;;;10.40;99.90;;;;;;5008231;28;20525;-73
2023/01/03 13:00:58;;;;;;;11.43;4.65;;;10.40;99.90;;;;;;5007279;28;20042;-75
2023/01/03 13:03:32;;;;;;;9.23;4.50;;;10.40;99.90;;;;;;4988310;28;20029;-75
2023/01/03 13:06:28;;;;;;;9.88;4.20;;;10.40;99.90;;;;;;4981610;28;20042;-77
2023/01/03 13:09:00;;;;;;;11.35;3.95;;;10.40;99.90;;;;;;5002532;28;20076;-78
2023/01/03 13:11:46;;;;;;;9.80;4.03;;;10.50;99.90;;;;;;5000081;28;20389;-76
2023/01/03 13:14:23;;;;;;;9.02;3.97;;;10.40;99.90;;;;;;5002551;28;20376;-76
2023/01/03 13:16:55;;;;;;;6.88;3.42;;;10.40;99.90;;;;;;5005212;28;20022;-75
2023/01/03 13:19:20;;;;;;;9.38;4.53;;;10.40;99.90;;;;;;5007810;28;20014;-76
2023/01/03 13:21:52;;;;;;;5.18;2.75;;;10.40;99.90;;;;;;5007741;28;20036;-77
2023/01/03 13:24:40;;;;;;;10.93;3.07;;;10.40;99.90;;;;;;4998749;28;20069;-76
2023/01/03 13:27:14;;;;;;;8.27;3.05;;;10.50;99.90;;;;;;4996746;28;20301;-74
2023/01/03 13:29:43;;;;;;;7.65;2.80;;;10.40;99.90;;;;;;5005858;28;20061;-73
2023/01/03 13:32:45;;;;;;;6.40;2.92;;;10.50;99.90;;;;;;4998656;28;20030;-74
2023/01/03 13:35:14;;;;;;;5.07;2.65;;;10.40;99.90;;;;;;5001077;28;20041;-73
2023/01/03 13:37:49;;;;;;;10.73;2.75;;;10.40;99.90;;;;;;4989717;28;20030;-74
2023/01/03 13:40:22;;;;;;;9.35;3.10;;;10.40;99.90;;;;;;4985026;28;20054;-74
2023/01/03 13:43:11;;;;;;;6.85;3.00;;;10.30;99.90;;;;;;5012352;28;20030;-74
2023/01/03 13:45:37;;;;;;;9.60;3.13;;;10.30;99.90;;;;;;5006257;28;20042;-74
2023/01/03 13:48:16;;;;;;;9.55;3.25;;;10.40;99.90;;;;;;5005495;28;20037;-74
2023/01/03 13:51:01;;;;;;;5.90;2.90;;;10.30;99.90;;;;;;5008259;28;20033;-74
2023/01/03 13:53:34;;;;;;;10.30;3.35;;;10.40;99.90;;;;;;4992714;28;20041;-75
2023/01/03 13:56:19;;;;;;;11.88;3.60;;;10.30;99.90;;;;;;5001917;28;20474;-76
2023/01/03 13:58:49;;;;;;;7.43;2.72;;;10.40;99.90;;;;;;5011581;28;20592;-75
2023/01/03 14:01:47;;;;;;;9.45;3.42;;;10.40;99.90;;;;;;5004063;28;20034;-75
2023/01/03 14:04:49;;;;;;;6.43;3.70;;;10.40;99.90;;;;;;4983728;28;20056;-75
2023/01/03 14:07:33;;;;;;;14.97;3.00;;;10.30;99.90;;;;;;5011021;28;20160;-74
2023/01/03 14:10:15;;;;;;;8.65;3.58;;;10.40;99.90;;;;;;5008926;28;20029;-75